createdAt,value
2023-01-19T00:01:05.734Z,99197
2023-01-19T00:06:56.959Z,99194
2023-01-19T00:12:47.835Z,99199
2023-01-19T00:18:38.583Z,99206
2023-01-19T00:24:32.533Z,99198
2023-01-19T00:30:21.996Z,99193
2023-01-19T00:36:12.019Z,99204
2023-01-19T00:42:02.924Z,99213
2023-01-19T00:47:57.731Z,99209
2023-01-19T00:53:47.698Z,99210
2023-01-19T00:59:37.981Z,99203
2023-01-19T01:05:28.460Z,99209
2023-01-19T01:11:19.726Z,99211
2023-01-19T01:17:10.528Z,99206
2023-01-19T01:23:02.906Z,99207
2023-01-19T01:28:53.788Z,99216
2023-01-19T01:34:44.819Z,99215
2023-01-19T01:40:35.480Z,99223
2023-01-19T01:46:26.732Z,99225
2023-01-19T01:52:17.536Z,99224
2023-01-19T01:58:07.793Z,99221
2023-01-19T02:03:58.891Z,99223
2023-01-19T02:09:52.119Z,99230
2023-01-19T02:15:43.458Z,99225
2023-01-19T02:21:33.731Z,99222
2023-01-19T02:27:24.237Z,99233
2023-01-19T02:33:15.177Z,99234
2023-01-19T02:39:06.280Z,99227
2023-01-19T02:44:56.756Z,99228
2023-01-19T02:50:47.344Z,99228
2023-01-19T02:56:38.120Z,99230
2023-01-19T03:02:28.784Z,99234
2023-01-19T03:08:19.537Z,99251
2023-01-19T03:14:10.279Z,99244
2023-01-19T03:20:00.941Z,99241
2023-01-19T03:25:51.293Z,99244
2023-01-19T03:31:42.072Z,99250
2023-01-19T03:37:32.299Z,99249
2023-01-19T03:43:23.189Z,99244
2023-01-19T03:49:14.033Z,99234
2023-01-19T03:55:06.098Z,99233
2023-01-19T04:00:56.384Z,99234
2023-01-19T04:06:46.830Z,99235
2023-01-19T04:12:36.636Z,99238
2023-01-19T04:18:28.286Z,99233
2023-01-19T04:24:21.403Z,99231
2023-01-19T04:30:12.456Z,99232
2023-01-19T04:36:03.195Z,99233
2023-01-19T04:41:53.723Z,99239
2023-01-19T04:47:44.554Z,99246
2023-01-19T04:53:35.193Z,99241
2023-01-19T04:59:25.977Z,99236
2023-01-19T05:05:16.658Z,99237
2023-01-19T05:11:07.486Z,99233
2023-01-19T05:16:58.432Z,99233
2023-01-19T05:22:49.126Z,99235
2023-01-19T05:28:40.001Z,99235
2023-01-19T05:34:31.255Z,99233
2023-01-19T05:40:22.072Z,99242
2023-01-19T05:46:12.952Z,99241
2023-01-19T05:52:03.748Z,99238
2023-01-19T05:57:55.034Z,99238
2023-01-19T06:03:46.195Z,99237
2023-01-19T06:09:36.815Z,99249
2023-01-19T06:15:28.447Z,99261
2023-01-19T06:21:19.122Z,99264
2023-01-19T06:27:07.968Z,99270
2023-01-19T06:32:56.067Z,99277
2023-01-19T06:38:47.549Z,99278
2023-01-19T06:44:38.313Z,99275
2023-01-19T06:50:30.545Z,99278
2023-01-19T06:56:19.577Z,99280
2023-01-19T07:02:31.841Z,99291
2023-01-19T07:08:21.364Z,99297
2023-01-19T07:14:11.808Z,99303
2023-01-19T07:20:03.582Z,99313
2023-01-19T07:25:54.738Z,99316
2023-01-19T07:31:46.994Z,99316
2023-01-19T07:37:40.636Z,99322
2023-01-19T07:43:32.120Z,99329
2023-01-19T07:49:23.724Z,99331
2023-01-19T07:55:20.871Z,99343
2023-01-19T08:01:11.979Z,99354
2023-01-19T08:07:03.710Z,99362
2023-01-19T08:12:56.284Z,99370
2023-01-19T08:18:51.070Z,99371
2023-01-19T08:24:41.794Z,99381
2023-01-19T08:30:31.831Z,99383
2023-01-19T08:36:22.298Z,99382
2023-01-19T08:42:13.616Z,99386
2023-01-19T08:48:03.667Z,99389
2023-01-19T08:53:54.713Z,99391
2023-01-19T08:59:47.067Z,99399
2023-01-19T09:05:37.598Z,99408
2023-01-19T09:11:29.189Z,99408
2023-01-19T09:17:18.727Z,99418
2023-01-19T09:23:08.975Z,99423
2023-01-19T09:29:00.406Z,99422
2023-01-19T09:34:56.152Z,99425
2023-01-19T09:40:45.978Z,99430
2023-01-19T09:46:40.897Z,99440
2023-01-19T09:52:31.674Z,99441
2023-01-19T09:58:22.863Z,99450
2023-01-19T10:04:15.061Z,99448
2023-01-19T10:10:06.086Z,99455
2023-01-19T10:15:57.803Z,99452
2023-01-19T10:21:48.673Z,99452
2023-01-19T10:27:39.243Z,99459
2023-01-19T10:33:29.998Z,99459
2023-01-19T10:39:20.352Z,99464
2023-01-19T10:45:11.722Z,99460
2023-01-19T10:51:02.103Z,99469
2023-01-19T10:56:52.707Z,99468
2023-01-19T11:02:43.068Z,99465
2023-01-19T11:08:33.533Z,99467
2023-01-19T11:14:23.925Z,99468
2023-01-19T11:20:14.167Z,99470
2023-01-19T11:26:04.283Z,99471
2023-01-19T11:31:54.663Z,99469
2023-01-19T11:37:46.246Z,99470
2023-01-19T11:43:52.881Z,99475
2023-01-19T11:49:42.450Z,99472
2023-01-19T11:55:32.724Z,99476
2023-01-19T12:01:27.619Z,99465
2023-01-19T12:07:17.693Z,99468
2023-01-19T12:13:08.214Z,99470
2023-01-19T12:18:57.134Z,99478
2023-01-19T12:24:48.978Z,99469
2023-01-19T12:30:39.398Z,99465
2023-01-19T12:36:30.136Z,99464
2023-01-19T12:42:23.911Z,99464
2023-01-19T12:48:13.395Z,99463
2023-01-19T12:54:05.862Z,99470
2023-01-19T12:59:56.988Z,99471
2023-01-19T13:05:47.413Z,99471
2023-01-19T13:11:37.863Z,99473
2023-01-19T13:17:29.531Z,99473
2023-01-19T13:23:22.183Z,99466
2023-01-19T13:29:13.124Z,99473
2023-01-19T13:35:04.284Z,99479
2023-01-19T13:40:56.425Z,99475
2023-01-19T13:46:46.478Z,99482
2023-01-19T13:52:36.625Z,99480
2023-01-19T13:58:26.887Z,99488
2023-01-19T14:04:18.134Z,99493
2023-01-19T14:10:10.990Z,99494
2023-01-19T14:16:00.723Z,99499
2023-01-19T14:21:51.242Z,99499
2023-01-19T14:27:41.789Z,99507
2023-01-19T14:33:32.334Z,99508
2023-01-19T14:39:22.598Z,99516
2023-01-19T14:45:16.085Z,99516
2023-01-19T14:51:06.978Z,99525
2023-01-19T14:56:57.709Z,99522
2023-01-19T15:02:47.896Z,99527
2023-01-19T15:08:38.415Z,99527
2023-01-19T15:14:29.080Z,99525
2023-01-19T15:20:22.986Z,99529
2023-01-19T15:26:13.876Z,99537
2023-01-19T15:32:03.841Z,99543
2023-01-19T15:37:53.807Z,99551
2023-01-19T15:43:44.592Z,99546
2023-01-19T15:49:36.969Z,99550
2023-01-19T15:55:27.898Z,99549
2023-01-19T16:01:18.560Z,99556
2023-01-19T16:07:08.990Z,99563
2023-01-19T16:13:00.873Z,99566
2023-01-19T16:18:49.699Z,99571
2023-01-19T16:24:40.518Z,99573
2023-01-19T16:30:30.892Z,99576
2023-01-19T16:36:22.573Z,99587
2023-01-19T16:42:12.805Z,99590
2023-01-19T16:48:03.489Z,99596
2023-01-19T16:53:55.156Z,99601
2023-01-19T16:59:45.724Z,99617
2023-01-19T17:05:36.240Z,99616
2023-01-19T17:11:26.151Z,99624
2023-01-19T17:17:17.124Z,99628
2023-01-19T17:23:07.841Z,99633
2023-01-19T17:28:58.050Z,99635
2023-01-19T17:34:48.563Z,99638
2023-01-19T17:40:38.961Z,99643
2023-01-19T17:46:32.220Z,99646
2023-01-19T17:52:22.651Z,99657
2023-01-19T17:58:13.679Z,99658
2023-01-19T18:04:05.882Z,99652
2023-01-19T18:09:56.282Z,99658
2023-01-19T18:15:52.224Z,99653
2023-01-19T18:21:42.692Z,99654
2023-01-19T18:27:33.536Z,99656
2023-01-19T18:33:24.273Z,99661
2023-01-19T18:39:14.319Z,99663
2023-01-19T18:45:05.104Z,99664
2023-01-19T18:50:55.284Z,99672
2023-01-19T18:56:45.245Z,99670
2023-01-19T19:02:34.554Z,99668
2023-01-19T19:08:25.498Z,99654
2023-01-19T19:14:15.409Z,99662
2023-01-19T19:20:05.613Z,99669
2023-01-19T19:25:55.882Z,99672
2023-01-19T19:31:46.255Z,99672
2023-01-19T19:37:35.657Z,99679
2023-01-19T19:43:26.491Z,99684
2023-01-19T19:49:19.821Z,99688
2023-01-19T19:55:10.711Z,99693
2023-01-19T20:01:01.040Z,99709
2023-01-19T20:06:51.013Z,99712
2023-01-19T20:12:41.416Z,99720
2023-01-19T20:18:32.976Z,99723
2023-01-19T20:24:22.931Z,99720
2023-01-19T20:30:15.860Z,99729
2023-01-19T20:36:06.194Z,99742
2023-01-19T20:41:56.389Z,99735
2023-01-19T20:47:46.555Z,99738
2023-01-19T20:53:36.666Z,99746
2023-01-19T20:59:28.892Z,99763
2023-01-19T21:05:18.867Z,99767
2023-01-19T21:11:10.091Z,99770
2023-01-19T21:17:00.545Z,99784
2023-01-19T21:22:50.858Z,99792
2023-01-19T21:28:41.132Z,99795
2023-01-19T21:34:30.894Z,99809
2023-01-19T21:40:23.478Z,99815
2023-01-19T21:46:15.455Z,99818
2023-01-19T21:52:06.127Z,99817
2023-01-19T21:57:56.280Z,99824
2023-01-19T22:03:46.225Z,99822
2023-01-19T22:09:35.595Z,99829
2023-01-19T22:15:26.819Z,99830
2023-01-19T22:21:16.626Z,99844
2023-01-19T22:27:06.238Z,99850
2023-01-19T22:32:58.116Z,99861
2023-01-19T22:38:47.812Z,99870
2023-01-19T22:44:38.107Z,99869
2023-01-19T22:50:28.268Z,99877
2023-01-19T22:56:18.382Z,99878
2023-01-19T23:02:10.998Z,99883
2023-01-19T23:08:01.696Z,99888
2023-01-19T23:13:52.948Z,99888
2023-01-19T23:19:43.449Z,99886
2023-01-19T23:25:33.096Z,99890
2023-01-19T23:31:23.607Z,99891
2023-01-19T23:37:14.751Z,99893
2023-01-19T23:43:06.739Z,99893
2023-01-19T23:48:57.715Z,99896
2023-01-19T23:54:48.149Z,99899
